Time;durP1;ratioP1;P1;durP2;ratioP2;P2;SDS_P1;SDS_P2;PMS_P1;PMS_P2;Temp;Humidity;BMP_temperature;BMP_pressure;BME280_temperature;BME280_humidity;BME280_pressure;Samples;Min_cycle;Max_cycle;Signal;HPM_P1;HPM_P2
2021/03/31 00:00:35;;;;;;;39.35;20.58;;;;;;;10.34;87.22;101964.50;5044048;28;20058;-71
2021/03/31 00:03:14;;;;;;;40.60;19.42;;;;;;;10.34;87.42;101961.84;5021208;28;20483;-73
2021/03/31 00:05:40;;;;;;;42.58;20.45;;;;;;;10.35;87.06;101959.16;5034218;28;20055;-72
2021/03/31 00:08:09;;;;;;;38.33;21.25;;;;;;;10.32;87.52;101956.66;5009153;28;20038;-71
2021/03/31 00:10:37;;;;;;;39.25;19.13;;;;;;;10.31;87.22;101954.06;5027378;28;20080;-71
2021/03/31 00:13:04;;;;;;;38.97;21.30;;;;;;;10.26;87.41;101950.75;5029810;23;20247;-79
2021/03/31 00:15:32;;;;;;;32.47;19.73;;;;;;;10.13;88.06;101950.28;5011424;28;20077;-76
2021/03/31 00:18:20;;;;;;;39.28;19.42;;;;;;;10.02;88.69;101952.47;5001621;28;20077;-80
2021/03/31 00:20:47;;;;;;;42.22;20.08;;;;;;;9.94;88.67;101944.81;5009042;28;20101;-77
2021/03/31 00:23:16;;;;;;;38.75;20.40;;;;;;;9.87;89.21;101941.56;5002518;28;20057;-78
2021/03/31 00:25:43;;;;;;;38.60;18.85;;;;;;;9.89;89.03;101937.09;5006692;28;20098;-78
2021/03/31 00:28:11;;;;;;;37.38;18.17;;;;;;;9.94;88.79;101934.31;4989973;28;20078;-78
2021/03/31 00:30:38;;;;;;;43.17;19.23;;;;;;;9.96;89.14;101929.88;5002161;28;20137;-80
2021/03/31 00:33:05;;;;;;;41.15;20.38;;;;;;;9.87;88.89;101935.44;4996768;28;20050;-79
2021/03/31 00:35:32;;;;;;;45.58;20.75;;;;;;;9.77;89.54;101940.19;5008689;28;20061;-78
2021/03/31 00:37:59;;;;;;;37.13;19.67;;;;;;;9.66;89.74;101933.56;4994624;28;20084;-81
2021/03/31 00:40:31;;;;;;;37.70;20.48;;;;;;;9.56;90.46;101933.88;4986762;28;20097;-78
2021/03/31 00:42:57;;;;;;;34.63;19.10;;;;;;;9.50;91.18;101936.72;4980437;28;20109;-79
2021/03/31 00:45:25;;;;;;;44.45;20.25;;;;;;;9.51;91.27;101927.91;5015114;28;20058;-77
2021/03/31 00:47:51;;;;;;;37.50;20.67;;;;;;;9.55;91.34;101931.31;5006100;28;20133;-78
2021/03/31 00:50:19;;;;;;;40.03;19.48;;;;;;;9.50;91.25;101928.84;4993850;28;20133;-78
2021/03/31 00:52:48;;;;;;;35.15;20.05;;;;;;;9.50;91.37;101923.56;4975781;28;20114;-77
2021/03/31 00:55:17;;;;;;;36.53;20.00;;;;;;;9.46;91.36;101921.97;4990427;28;20137;-78
2021/03/31 00:57:44;;;;;;;40.10;18.15;;;;;;;9.43;91.69;101926.44;4992332;28;20118;-81
2021/03/31 01:00:12;;;;;;;42.72;19.88;;;;;;;9.37;92.26;101924.91;4992808;28;20346;-79
2021/03/31 01:02:39;;;;;;;45.30;20.60;;;;;;;9.36;92.71;101929.25;5004720;28;20077;-80
2021/03/31 01:05:08;;;;;;;41.75;19.88;;;;;;;9.34;92.17;101927.63;5005378;28;20038;-78
2021/03/31 01:07:36;;;;;;;38.40;19.52;;;;;;;9.26;92.60;101927.00;4975507;28;20144;-80
2021/03/31 01:10:04;;;;;;;47.38;21.48;;;;;;;9.20;92.87;101929.84;4991762;28;20057;-79
2021/03/31 01:12:53;;;;;;;41.67;19.38;;;;;;;9.18;93.36;101921.13;4976729;28;20506;-80
2021/03/31 01:15:35;;;;;;;37.88;19.80;;;;;;;9.19;92.97;101928.97;4972201;28;20055;-79
2021/03/31 01:18:14;;;;;;;37.45;18.33;;;;;;;9.17;93.53;101925.53;4984985;28;20094;-78
2021/03/31 01:21:02;;;;;;;41.53;20.00;;;;;;;9.16;93.63;101926.44;5002719;28;20526;-79
2021/03/31 01:23:58;;;;;;;34.55;18.42;;;;;;;9.16;93.75;101931.69;4952500;28;20050;-80
2021/03/31 01:26:31;;;;;;;39.70;19.40;;;;;;;9.13;93.86;101926.53;4996678;28;20196;-80
2021/03/31 01:29:15;;;;;;;41.58;18.73;;;;;;;9.04;94.40;101925.06;4964362;28;20503;-79
2021/03/31 01:31:45;;;;;;;36.60;18.77;;;;;;;8.96;94.78;101929.72;4972554;28;20114;-78
2021/03/31 01:34:42;;;;;;;41.72;18.98;;;;;;;8.93;95.11;101932.44;4986008;28;20054;-79
2021/03/31 01:37:17;;;;;;;35.78;18.30;;;;;;;8.91;95.22;101925.50;4983660;28;20109;-81
2021/03/31 01:39:45;;;;;;;;;;;;;;;8.90;95.18;101921.16;4982247;28;20050;-80
2021/03/31 01:42:14;;;;;;;34.25;18.17;;;;;;;8.84;95.02;101923.06;4966551;28;19921;-80
2021/03/31 01:44:42;;;;;;;39.70;18.13;;;;;;;8.77;95.32;101921.53;4996460;28;20042;-81
2021/03/31 01:47:12;;;;;;;33.70;17.42;;;;;;;8.75;96.05;101919.88;4983513;28;20054;-81
2021/03/31 01:49:40;;;;;;;30.90;17.75;;;;;;;8.87;95.79;101919.47;4995458;23;20128;-72
2021/03/31 01:52:07;;;;;;;37.88;20.02;;;;;;;8.98;95.55;101911.28;5017652;28;20069;-71
2021/03/31 01:54:34;;;;;;;35.28;18.65;;;;;;;8.99;95.16;101916.47;4971072;28;20045;-70
2021/03/31 01:57:02;;;;;;;33.90;18.08;;;;;;;8.99;95.64;101918.22;5004339;28;20084;-71
2021/03/31 01:59:29;;;;;;;33.22;18.90;;;;;;;8.98;94.65;101908.66;5012306;28;20052;-72
2021/03/31 02:01:57;;;;;;;36.30;19.42;;;;;;;8.99;94.68;101910.34;5019424;28;20511;-72
2021/03/31 02:04:24;;;;;;;34.92;18.10;;;;;;;8.99;95.14;101905.97;5017515;28;20052;-70
2021/03/31 02:06:52;;;;;;;39.28;19.50;;;;;;;8.96;95.19;101908.69;4997818;28;20068;-70
2021/03/31 02:09:19;;;;;;;41.05;20.17;;;;;;;8.86;94.95;101905.47;5017307;28;20139;-72
2021/03/31 02:11:47;;;;;;;38.50;18.88;;;;;;;8.87;95.73;101901.09;5015031;28;20067;-70
2021/03/31 02:14:18;;;;;;;34.17;18.63;;;;;;;8.87;95.13;101901.97;5037460;28;20072;-71
2021/03/31 02:16:45;;;;;;;40.45;19.73;;;;;;;8.91;95.52;101899.22;5015940;28;20063;-72
2021/03/31 02:19:18;;;;;;;35.40;19.42;;;;;;;8.93;94.93;101900.91;5017532;28;20152;-72
2021/03/31 02:21:45;;;;;;;39.40;20.00;;;;;;;8.82;95.66;101897.75;5013631;28;20462;-71
2021/03/31 02:24:14;;;;;;;42.33;19.92;;;;;;;8.75;96.12;101904.13;4994752;28;20050;-72
2021/03/31 02:26:41;;;;;;;34.45;18.88;;;;;;;8.66;96.22;101891.28;5010785;28;20140;-71
2021/03/31 02:29:08;;;;;;;40.33;19.70;;;;;;;8.56;96.96;101896.81;5026706;28;20488;-70
2021/03/31 02:31:39;;;;;;;33.17;19.25;;;;;;;8.43;97.85;101892.81;4996307;28;20406;-70
2021/03/31 02:34:06;;;;;;;32.60;19.45;;;;;;;8.37;98.29;101892.97;4994123;28;20059;-71
2021/03/31 02:36:38;;;;;;;31.95;18.95;;;;;;;8.34;98.16;101890.44;5011411;28;20068;-71
2021/03/31 02:39:05;;;;;;;36.22;19.52;;;;;;;8.34;98.68;101895.69;5010324;28;20156;-70
2021/03/31 02:41:36;;;;;;;43.63;20.13;;;;;;;8.32;98.99;101892.22;5009351;28;20112;-71
2021/03/31 02:44:04;;;;;;;38.92;21.05;;;;;;;8.28;99.25;101893.22;4989874;28;20525;-71
2021/03/31 02:46:33;;;;;;;41.10;20.13;;;;;;;8.23;99.13;101895.13;5011421;28;20144;-70
2021/03/31 02:49:00;;;;;;;43.72;21.50;;;;;;;8.18;99.60;101891.78;4993068;28;20482;-70
2021/03/31 02:51:30;;;;;;;36.60;20.95;;;;;;;8.12;99.96;101890.19;5007625;28;20080;-71
2021/03/31 02:53:58;;;;;;;44.90;20.80;;;;;;;8.10;99.87;101892.88;4990862;28;20049;-70
2021/03/31 02:56:25;;;;;;;42.97;21.40;;;;;;;8.08;99.70;101899.06;4971514;28;20045;-71
2021/03/31 02:58:52;;;;;;;45.17;20.00;;;;;;;8.03;100.00;101895.69;5004713;28;20140;-72
2021/03/31 03:01:18;;;;;;;45.88;22.48;;;;;;;8.02;100.00;101886.13;4980491;28;20072;-70
2021/03/31 03:03:45;;;;;;;42.63;22.83;;;;;;;7.96;100.00;101887.13;5007094;28;20103;-72
2021/03/31 03:06:12;;;;;;;46.80;23.08;;;;;;;7.94;100.00;101893.34;4997816;28;20443;-71
2021/03/31 03:08:39;;;;;;;43.92;22.40;;;;;;;7.91;100.00;101885.53;5031263;28;20088;-72
2021/03/31 03:11:05;;;;;;;40.38;21.75;;;;;;;7.86;100.00;101883.91;5021998;28;20050;-70
2021/03/31 03:13:33;;;;;;;47.80;24.23;;;;;;;7.77;100.00;101891.16;5003351;28;20049;-72
2021/03/31 03:16:01;;;;;;;45.42;23.55;;;;;;;7.72;100.00;101882.56;5009034;28;20046;-71
2021/03/31 03:18:27;;;;;;;49.42;24.90;;;;;;;7.69;100.00;101885.25;5011554;28;20091;-73
2021/03/31 03:20:54;;;;;;;58.25;25.88;;;;;;;7.68;100.00;101880.94;5002949;28;20077;-70
2021/03/31 03:23:21;;;;;;;45.28;27.30;;;;;;;7.70;100.00;101879.13;5032207;28;20074;-70
2021/03/31 03:25:52;;;;;;;38.17;23.75;;;;;;;7.69;100.00;101875.63;5010407;28;20423;-71
2021/03/31 03:28:20;;;;;;;40.38;23.65;;;;;;;7.66;100.00;101877.50;5018396;28;20068;-71
2021/03/31 03:30:47;;;;;;;46.05;23.85;;;;;;;7.61;100.00;101870.63;5018353;28;20490;-72
2021/03/31 03:33:15;;;;;;;48.25;25.38;;;;;;;7.59;100.00;101875.03;5013191;28;20515;-71
2021/03/31 03:35:42;;;;;;;45.05;24.13;;;;;;;7.58;100.00;101873.31;4996885;28;20050;-71
2021/03/31 03:38:09;;;;;;;47.70;23.30;;;;;;;7.56;100.00;101872.47;4979704;28;20389;-70
2021/03/31 03:40:37;;;;;;;45.78;24.88;;;;;;;7.53;100.00;101879.59;4995261;28;20204;-71
2021/03/31 03:43:04;;;;;;;40.58;24.48;;;;;;;7.48;100.00;101871.84;4993904;28;20056;-71
2021/03/31 03:45:31;;;;;;;47.20;23.75;;;;;;;7.48;100.00;101873.59;5012911;28;20064;-73
2021/03/31 03:47:59;;;;;;;45.10;23.77;;;;;;;7.45;100.00;101869.28;5012195;28;20049;-72
2021/03/31 03:50:26;;;;;;;38.15;22.50;;;;;;;7.52;100.00;101868.25;5019434;28;20044;-71
2021/03/31 03:52:53;;;;;;;41.83;22.42;;;;;;;7.60;100.00;101870.63;5029320;28;20061;-71
2021/03/31 03:55:22;;;;;;;40.08;24.27;;;;;;;7.59;100.00;101861.91;4992947;28;20088;-71
2021/03/31 03:57:49;;;;;;;46.88;25.10;;;;;;;7.52;100.00;101859.50;5007665;28;20068;-71
2021/03/31 04:00:18;;;;;;;50.15;24.40;;;;;;;7.46;100.00;101865.78;5023336;28;20060;-72
2021/03/31 04:02:53;;;;;;;49.63;25.33;;;;;;;7.56;100.00;101866.38;4997016;28;20059;-72
2021/03/31 04:05:19;;;;;;;40.33;24.13;;;;;;;7.70;100.00;101861.66;5001450;28;20048;-72
2021/03/31 04:07:46;;;;;;;40.83;21.88;;;;;;;7.69;100.00;101864.28;5037362;28;20055;-73
2021/03/31 04:10:14;;;;;;;53.67;27.30;;;;;;;7.74;100.00;101851.91;5002539;28;20049;-73
2021/03/31 04:12:42;;;;;;;47.95;25.90;;;;;;;7.73;100.00;101850.22;5001307;28;20419;-72
2021/03/31 04:15:10;;;;;;;49.47;25.08;;;;;;;7.61;100.00;101851.41;5013805;28;20535;-72
2021/03/31 04:17:39;;;;;;;49.05;23.90;;;;;;;7.53;100.00;101841.13;5012581;28;20059;-70
2021/03/31 04:20:11;;;;;;;50.92;23.73;;;;;;;7.52;100.00;101846.41;5013918;28;20059;-72
2021/03/31 04:22:38;;;;;;;43.17;22.20;;;;;;;7.49;100.00;101842.13;5013155;28;20068;-71
2021/03/31 04:25:07;;;;;;;40.42;24.63;;;;;;;7.43;100.00;101850.16;5016427;28;20064;-71
2021/03/31 04:27:34;;;;;;;45.58;25.35;;;;;;;7.41;100.00;101849.31;5009508;28;20057;-73
2021/03/31 04:30:07;;;;;;;44.65;23.90;;;;;;;7.40;100.00;101847.59;5000898;28;20045;-71
2021/03/31 04:32:34;;;;;;;47.17;23.45;;;;;;;7.46;100.00;101849.19;4998849;28;20327;-72
2021/03/31 04:35:02;;;;;;;40.15;22.17;;;;;;;7.52;100.00;101846.41;5010599;28;20065;-73
2021/03/31 04:37:29;;;;;;;45.92;24.30;;;;;;;7.50;100.00;101849.06;5015822;28;20060;-70
2021/03/31 04:39:56;;;;;;;50.13;25.42;;;;;;;7.51;100.00;101855.16;5013561;28;20596;-72
2021/03/31 04:42:23;;;;;;;41.97;24.50;;;;;;;7.52;100.00;101844.66;4996353;28;20064;-71
2021/03/31 04:44:50;;;;;;;46.33;24.55;;;;;;;7.57;100.00;101839.31;5015446;28;20056;-71
2021/03/31 04:47:16;;;;;;;50.15;23.42;;;;;;;7.64;100.00;101829.50;5004117;28;20065;-73
2021/03/31 04:49:44;;;;;;;52.47;23.38;;;;;;;7.68;100.00;101832.00;5040086;28;20053;-72
2021/03/31 04:52:10;;;;;;;46.70;22.73;;;;;;;7.84;100.00;101828.06;4999228;28;20112;-71
2021/03/31 04:54:37;;;;;;;42.92;24.38;;;;;;;8.08;100.00;101833.47;5016837;28;20060;-72
2021/03/31 04:57:04;;;;;;;40.38;22.13;;;;;;;8.12;100.00;101824.63;5013947;28;20220;-71
2021/03/31 04:59:37;;;;;;;44.20;22.38;;;;;;;8.22;100.00;101827.81;5016364;28;20052;-72
2021/03/31 05:02:04;;;;;;;41.13;23.17;;;;;;;8.24;99.72;101820.75;4988203;28;20534;-70
2021/03/31 05:04:31;;;;;;;40.50;22.30;;;;;;;8.32;99.36;101817.00;5014191;28;20061;-69
2021/03/31 05:07:00;;;;;;;33.97;20.80;;;;;;;8.44;98.74;101813.19;5021345;28;20056;-71
2021/03/31 05:09:27;;;;;;;37.42;21.63;;;;;;;8.50;98.39;101817.38;4995914;28;20081;-71
2021/03/31 05:11:54;;;;;;;46.80;22.40;;;;;;;8.55;98.02;101818.09;4998761;28;20055;-71
2021/03/31 05:14:21;;;;;;;43.90;21.27;;;;;;;8.68;97.21;101816.78;5019156;28;20136;-71
2021/03/31 05:16:51;;;;;;;45.38;22.75;;;;;;;8.90;96.32;101816.97;5011719;28;20057;-72
2021/03/31 05:19:18;;;;;;;45.38;23.02;;;;;;;9.32;93.55;101811.16;4996854;28;20046;-72
2021/03/31 05:21:45;;;;;;;36.47;19.40;;;;;;;9.66;91.45;101812.59;5025127;28;20050;-72
2021/03/31 05:24:11;;;;;;;41.60;20.13;;;;;;;10.09;89.08;101809.25;5029608;28;20976;-72
2021/03/31 05:26:38;;;;;;;38.95;19.40;;;;;;;10.87;84.52;101809.69;5014815;28;20076;-73
2021/03/31 05:29:05;;;;;;;36.25;18.10;;;;;;;11.33;81.22;101818.28;5002853;28;20057;-72
2021/03/31 05:31:31;;;;;;;36.83;17.92;;;;;;;11.84;78.66;101803.75;5034358;28;20144;-72
2021/03/31 05:33:58;;;;;;;37.38;18.48;;;;;;;12.25;75.79;101803.63;4981936;28;20156;-72
2021/03/31 05:36:25;;;;;;;32.38;17.02;;;;;;;12.43;74.20;101801.91;5002071;28;20677;-71
2021/03/31 05:38:52;;;;;;;39.22;19.70;;;;;;;12.81;71.99;101807.09;4996191;28;20065;-72
2021/03/31 05:41:19;;;;;;;37.05;18.63;;;;;;;13.54;69.30;101792.78;4996230;28;20052;-72
2021/03/31 05:43:45;;;;;;;33.63;16.00;;;;;;;14.48;65.48;101796.50;4998637;28;20145;-71
2021/03/31 05:46:12;;;;;;;29.70;15.57;;;;;;;15.37;62.86;101797.47;4997335;28;20060;-71
2021/03/31 05:48:39;;;;;;;32.10;16.42;;;;;;;15.31;61.04;101800.50;4980483;28;20054;-70
2021/03/31 05:51:06;;;;;;;32.92;16.77;;;;;;;15.19;61.52;101787.97;4981511;28;20049;-71
2021/03/31 05:53:32;;;;;;;35.17;16.73;;;;;;;14.59;62.28;101791.47;4987547;28;20686;-70
2021/03/31 05:55:59;;;;;;;32.58;16.73;;;;;;;13.67;65.03;101791.19;4996581;28;20099;-72
2021/03/31 05:58:26;;;;;;;30.17;14.80;;;;;;;12.66;69.05;101799.00;5029419;28;20056;-71
2021/03/31 06:00:53;;;;;;;31.25;15.60;;;;;;;12.82;69.34;101796.44;5011851;28;20088;-70
2021/03/31 06:03:21;;;;;;;27.70;16.10;;;;;;;12.81;68.83;101799.16;5017442;28;20057;-71
2021/03/31 06:05:48;;;;;;;29.42;17.13;;;;;;;13.11;68.09;101802.91;5010503;28;20087;-71
2021/03/31 06:08:14;;;;;;;29.88;16.20;;;;;;;13.21;68.14;101799.81;5011340;28;20591;-71
2021/03/31 06:10:41;;;;;;;30.02;15.90;;;;;;;13.93;65.14;101784.50;5000682;28;20097;-71
2021/03/31 06:13:11;;;;;;;25.77;15.27;;;;;;;14.64;62.70;101784.09;5031126;28;20053;-71
2021/03/31 06:15:43;;;;;;;28.58;14.20;;;;;;;15.69;58.81;101781.41;5015168;28;20064;-72
2021/03/31 06:18:14;;;;;;;31.13;15.05;;;;;;;16.12;57.45;101781.34;5012927;28;20057;-71
2021/03/31 06:20:44;;;;;;;24.83;14.93;;;;;;;16.62;55.23;101779.91;5010092;28;20046;-71
2021/03/31 06:26:44;;;;;;;25.58;14.50;;;;;;;18.96;48.88;101777.50;5011056;28;20049;-70
2021/03/31 06:29:10;;;;;;;28.50;15.02;;;;;;;19.96;46.18;101772.41;4960272;28;20063;-72
2021/03/31 06:31:41;;;;;;;25.13;14.82;;;;;;;20.74;43.96;101768.69;4936072;28;20053;-71
2021/03/31 06:34:17;;;;;;;24.88;14.68;;;;;;;22.05;40.69;101766.31;4995440;28;20053;-72
2021/03/31 06:36:51;;;;;;;;;;;;;;;21.65;40.52;101764.50;5010865;28;20534;-72
2021/03/31 06:39:34;;;;;;;26.52;14.73;;;;;;;21.78;40.07;101769.63;5025930;28;20353;-71
2021/03/31 06:42:07;;;;;;;32.13;13.77;;;;;;;22.26;39.05;101764.44;5027732;28;20052;-71
2021/03/31 06:44:43;;;;;;;23.42;14.60;;;;;;;22.49;38.84;101762.34;4994335;28;20080;-70
2021/03/31 06:47:17;;;;;;;20.92;13.07;;;;;;;23.81;36.75;101760.69;5026479;28;20053;-72
2021/03/31 06:49:44;;;;;;;37.27;15.37;;;;;;;24.31;34.57;101750.34;4997365;28;20088;-71
2021/03/31 06:52:11;;;;;;;31.55;16.33;;;;;;;25.02;33.79;101754.84;5003547;28;20076;-71
2021/03/31 06:54:47;;;;;;;28.05;14.75;;;;;;;26.41;31.00;101747.44;4992212;28;20049;-70
2021/03/31 06:57:25;;;;;;;22.33;13.85;;;;;;;27.43;30.02;101755.00;5023107;28;20050;-72
2021/03/31 07:00:10;;;;;;;28.55;14.75;;;;;;;27.68;28.92;101757.63;5006614;28;20068;-73
2021/03/31 07:02:38;;;;;;;27.95;15.05;;;;;;;27.23;29.36;101751.84;5011059;28;20547;-72
2021/03/31 07:05:09;;;;;;;27.15;13.93;;;;;;;26.96;29.72;101747.63;5012197;28;20045;-71
2021/03/31 07:07:38;;;;;;;29.95;13.45;;;;;;;27.32;28.98;101751.81;4980311;28;20129;-71
2021/03/31 07:10:09;;;;;;;21.58;13.27;;;;;;;26.16;30.60;101751.91;5010894;28;20132;-73
2021/03/31 07:12:47;;;;;;;24.38;13.52;;;;;;;25.68;31.46;101751.59;4980132;28;20106;-73
2021/03/31 07:15:15;;;;;;;32.85;15.25;;;;;;;25.75;31.46;101758.00;5012734;28;20054;-72
2021/03/31 07:17:47;;;;;;;23.48;12.45;;;;;;;25.48;32.03;101759.03;4996995;28;20077;-71
2021/03/31 07:20:15;;;;;;;25.42;13.68;;;;;;;27.54;29.03;101745.66;4995232;28;20049;-72
2021/03/31 07:22:41;;;;;;;22.25;14.15;;;;;;;27.19;29.40;101758.59;4983848;28;20069;-71
2021/03/31 07:25:11;;;;;;;23.98;13.68;;;;;;;27.94;28.03;101752.78;5018533;28;20052;-73
2021/03/31 07:27:38;;;;;;;28.85;13.50;;;;;;;28.37;27.62;101755.09;4999771;28;20156;-72
2021/03/31 07:30:10;;;;;;;27.42;13.32;;;;;;;29.21;26.33;101761.34;4976733;28;20088;-73
2021/03/31 07:32:44;;;;;;;28.85;14.25;;;;;;;29.65;25.83;101755.13;5023946;28;20057;-72
2021/03/31 07:35:12;;;;;;;25.27;14.02;;;;;;;30.83;23.82;101748.50;5027224;28;20084;-72
2021/03/31 07:37:40;;;;;;;31.08;14.15;;;;;;;29.87;25.23;101756.03;5006381;28;20042;-70
2021/03/31 07:40:10;;;;;;;23.50;14.38;;;;;;;29.40;26.39;101762.66;4983871;28;20406;-71
2021/03/31 07:42:42;;;;;;;32.17;14.23;;;;;;;29.41;26.02;101756.25;4994824;28;20082;-70
2021/03/31 07:45:11;;;;;;;25.33;13.05;;;;;;;29.92;25.33;101750.88;5000921;28;20063;-71
2021/03/31 07:47:40;;;;;;;26.92;14.82;;;;;;;29.10;25.88;101754.53;5013215;28;20060;-71
2021/03/31 07:50:09;;;;;;;32.63;15.88;;;;;;;28.90;26.56;101758.75;5011830;28;20056;-72
2021/03/31 07:52:52;;;;;;;26.13;15.40;;;;;;;28.19;27.27;101756.22;4979737;28;20529;-71
2021/03/31 07:55:38;;;;;;;28.60;13.75;;;;;;;29.65;25.46;101747.81;5031907;23;20141;-76
2021/03/31 07:58:29;;;;;;;26.90;14.82;;;;;;;29.50;25.80;101755.97;5005332;28;20541;-76
2021/03/31 08:01:04;;;;;;;23.90;14.15;;;;;;;30.07;24.83;101751.66;4985192;28;20485;-75
2021/03/31 08:03:33;;;;;;;28.23;13.57;;;;;;;29.73;24.71;101747.72;4973201;28;20497;-75
2021/03/31 08:06:04;;;;;;;27.10;14.88;;;;;;;30.31;23.81;101741.53;5024738;28;20053;-74
2021/03/31 08:08:32;;;;;;;27.08;13.38;;;;;;;30.07;24.13;101737.25;4991344;28;20149;-75
2021/03/31 08:10:59;;;;;;;24.02;13.30;;;;;;;29.31;25.63;101748.34;4977176;28;20121;-75
2021/03/31 08:13:28;;;;;;;28.23;14.20;;;;;;;29.37;25.13;101746.78;4987565;28;20169;-75
2021/03/31 08:15:56;;;;;;;24.90;13.60;;;;;;;28.54;26.23;101748.53;4977187;28;20064;-75
2021/03/31 08:18:24;;;;;;;25.23;13.32;;;;;;;28.97;26.25;101743.47;4993171;28;20125;-75
2021/03/31 08:20:52;;;;;;;30.75;14.02;;;;;;;30.23;24.69;101745.22;4993189;28;20054;-75
2021/03/31 08:23:47;;;;;;;22.00;13.80;;;;;;;30.14;24.22;101739.06;4990530;28;20054;-75
2021/03/31 08:26:34;;;;;;;26.25;14.02;;;;;;;31.00;23.45;101744.47;4972476;28;20038;-73
2021/03/31 08:29:04;;;;;;;23.90;14.52;;;;;;;30.97;23.56;101744.84;4962229;28;20050;-74
2021/03/31 08:31:39;;;;;;;32.90;14.43;;;;;;;30.94;23.58;101745.25;4989997;28;20185;-75
2021/03/31 08:34:09;;;;;;;25.98;14.00;;;;;;;29.43;25.39;101746.88;4988355;28;20423;-75
2021/03/31 08:36:41;;;;;;;28.17;14.85;;;;;;;30.73;24.36;101740.69;4970909;28;20137;-75
2021/03/31 08:39:12;;;;;;;32.75;16.15;;;;;;;29.26;25.45;101742.66;4986412;28;20061;-76
2021/03/31 08:41:41;;;;;;;28.77;14.05;;;;;;;30.53;24.07;101743.19;4988463;28;20053;-76
2021/03/31 08:44:19;;;;;;;26.08;15.50;;;;;;;28.75;26.58;101745.16;5005022;28;20054;-76
2021/03/31 08:46:46;;;;;;;30.25;15.43;;;;;;;28.43;26.87;101740.84;4955997;28;20081;-76
2021/03/31 08:49:23;;;;;;;32.92;15.93;;;;;;;25.61;31.14;101741.59;4972206;28;20065;-75
2021/03/31 08:51:53;;;;;;;35.63;15.95;;;;;;;24.16;33.65;101735.72;4988395;28;20122;-75
2021/03/31 08:54:36;;;;;;;32.85;16.58;;;;;;;23.30;35.62;101745.88;4989109;28;20051;-75
2021/03/31 08:57:06;;;;;;;33.55;17.05;;;;;;;21.88;39.09;101735.66;4984485;28;20081;-76
2021/03/31 08:59:37;;;;;;;31.27;14.98;;;;;;;21.84;39.03;101734.22;4968831;28;20054;-75
2021/03/31 09:02:05;;;;;;;42.45;17.70;;;;;;;21.70;38.90;101736.31;4966274;28;20058;-75
2021/03/31 09:04:32;;;;;;;38.97;16.98;;;;;;;21.35;40.11;101730.53;4975620;28;20058;-77
2021/03/31 09:07:02;;;;;;;38.63;17.08;;;;;;;21.26;39.86;101733.97;5002793;28;20054;-75
2021/03/31 09:09:36;;;;;;;37.70;15.38;;;;;;;21.29;40.10;101736.38;4987552;28;20054;-75
2021/03/31 09:12:25;;;;;;;34.60;17.20;;;;;;;21.43;39.63;101726.19;4977785;28;20078;-75
2021/03/31 09:14:55;;;;;;;30.05;15.85;;;;;;;20.87;40.60;101725.69;4955143;28;20154;-75
2021/03/31 09:17:26;;;;;;;37.50;16.98;;;;;;;20.85;41.30;101724.97;4971463;28;20373;-75
2021/03/31 09:19:57;;;;;;;32.00;16.25;;;;;;;21.02;40.84;101726.22;5003709;28;20050;-76
2021/03/31 09:22:27;;;;;;;34.10;17.98;;;;;;;21.26;40.09;101713.41;4991175;28;20058;-75
2021/03/31 09:25:01;;;;;;;36.67;16.90;;;;;;;21.26;39.64;101712.56;4942924;28;20057;-77
2021/03/31 09:27:33;;;;;;;42.88;18.42;;;;;;;21.07;40.01;101711.44;4987489;28;20046;-76
2021/03/31 09:30:04;;;;;;;33.13;17.20;;;;;;;20.73;39.88;101718.84;4975521;28;20050;-75
2021/03/31 09:32:35;;;;;;;34.35;17.15;;;;;;;20.89;39.34;101719.25;4969861;28;20065;-76
2021/03/31 09:35:15;;;;;;;38.85;18.35;;;;;;;20.80;39.67;101713.81;4990070;28;20140;-75
2021/03/31 09:37:49;;;;;;;36.78;17.30;;;;;;;21.04;39.19;101709.03;4971567;28;20050;-77
2021/03/31 09:40:33;;;;;;;29.52;17.45;;;;;;;21.04;38.08;101708.19;4991418;28;20069;-74
2021/03/31 09:47:12;;;;;;;38.33;19.15;;;;;;;21.13;37.01;101694.84;4992236;28;20160;-76
2021/03/31 09:49:42;;;;;;;45.00;19.40;;;;;;;21.02;36.69;101694.94;4967233;28;20050;-76
2021/03/31 09:52:08;;;;;;;30.52;19.98;;;;;;;21.22;36.99;101682.50;4971756;28;20439;-74
2021/03/31 09:54:35;;;;;;;37.88;20.17;;;;;;;21.62;35.52;101690.59;4966696;28;20098;-77
2021/03/31 09:57:03;;;;;;;41.70;20.00;;;;;;;21.91;34.25;101687.13;4989487;28;20057;-75
2021/03/31 09:59:30;;;;;;;36.28;20.25;;;;;;;21.95;34.15;101685.88;4983435;28;20050;-76
2021/03/31 10:01:56;;;;;;;35.47;21.10;;;;;;;21.59;33.33;101682.81;4990053;28;20643;-76
2021/03/31 10:04:23;;;;;;;40.45;20.80;;;;;;;21.67;32.09;101672.28;4990261;28;20072;-76
2021/03/31 10:07:17;;;;;;;35.95;19.63;;;;;;;21.77;30.71;101668.75;4974329;28;20050;-76
2021/03/31 10:14:19;;;;;;;35.70;19.92;;;;;;;21.91;30.34;101663.00;4992675;28;20041;-75
2021/03/31 10:16:48;;;;;;;32.72;18.42;;;;;;;21.68;29.73;101660.56;5005292;28;20061;-75
2021/03/31 10:19:15;;;;;;;33.85;19.60;;;;;;;21.78;29.95;101663.25;4988647;28;20042;-76
2021/03/31 10:21:42;;;;;;;31.55;19.00;;;;;;;21.90;30.37;101656.78;4988625;28;20048;-75
2021/03/31 10:24:10;;;;;;;32.33;18.67;;;;;;;22.22;29.86;101653.03;4971485;28;20546;-76
2021/03/31 10:26:57;;;;;;;42.95;19.60;;;;;;;21.90;30.05;101650.59;4974167;28;20065;-77
2021/03/31 10:29:28;;;;;;;32.97;19.13;;;;;;;22.07;30.17;101646.38;4974645;28;20038;-73
2021/03/31 10:32:20;;;;;;;31.55;17.75;;;;;;;22.16;30.55;101635.69;4971312;28;20504;-75
2021/03/31 10:34:52;;;;;;;30.98;16.75;;;;;;;21.79;29.47;101631.94;4971994;28;20054;-74
2021/03/31 10:37:28;;;;;;;32.15;19.08;;;;;;;22.01;29.98;101637.03;4971876;28;20042;-74
2021/03/31 10:40:17;;;;;;;39.90;16.90;;;;;;;22.02;30.36;101629.84;4971716;28;20685;-75
2021/03/31 10:54:05;;;;;;;30.95;16.08;;;;;;;22.19;29.49;101613.06;4990879;28;20046;-76
2021/03/31 10:56:33;;;;;;;33.35;16.90;;;;;;;22.20;29.66;101607.59;4988279;28;20060;-74
2021/03/31 10:59:00;;;;;;;28.63;16.50;;;;;;;22.19;29.76;101605.03;4983009;28;20161;-75
2021/03/31 11:01:27;;;;;;;30.75;16.75;;;;;;;21.67;30.01;101596.38;4967249;28;20046;-76
2021/03/31 11:03:54;;;;;;;30.05;17.58;;;;;;;21.52;30.12;101597.75;4988089;28;20056;-76
2021/03/31 11:06:22;;;;;;;31.38;15.65;;;;;;;21.68;29.88;101588.19;4989759;28;20058;-75
2021/03/31 11:08:50;;;;;;;32.00;16.25;;;;;;;21.90;29.49;101591.59;4974252;28;20046;-75
2021/03/31 11:11:17;;;;;;;28.48;16.38;;;;;;;21.87;29.14;101587.34;4971027;28;20077;-75
2021/03/31 11:13:44;;;;;;;26.73;15.00;;;;;;;21.99;29.00;101582.72;4992844;28;20058;-75
2021/03/31 11:16:13;;;;;;;27.92;15.65;;;;;;;22.06;28.49;101585.66;4988980;28;20046;-77
2021/03/31 11:26:37;;;;;;;30.77;17.00;;;;;;;22.13;28.58;101576.94;5001676;28;20061;-73
2021/03/31 11:29:03;;;;;;;27.85;15.45;;;;;;;22.05;28.84;101568.72;4989330;28;20082;-74
2021/03/31 11:31:30;;;;;;;26.58;13.65;;;;;;;22.00;28.53;101561.13;4989898;28;20054;-74
2021/03/31 11:33:57;;;;;;;39.75;14.65;;;;;;;22.22;28.47;101557.31;4992049;28;20082;-76
2021/03/31 11:36:23;;;;;;;23.52;13.73;;;;;;;22.32;28.57;101551.94;4970297;28;20052;-75
2021/03/31 11:38:50;;;;;;;31.60;14.32;;;;;;;21.94;27.85;101548.28;4986516;28;20054;-75
2021/03/31 11:41:17;;;;;;;24.45;14.50;;;;;;;22.16;27.89;101539.13;4989790;28;20082;-76
2021/03/31 11:43:44;;;;;;;21.67;12.63;;;;;;;22.21;28.01;101534.19;4989092;28;20064;-73
2021/03/31 11:46:10;;;;;;;21.40;13.05;;;;;;;22.35;27.52;101537.41;4975155;28;20367;-75
2021/03/31 11:48:37;;;;;;;24.98;13.68;;;;;;;22.40;27.40;101530.59;4976803;28;20038;-75
2021/03/31 11:51:05;;;;;;;22.02;12.15;;;;;;;22.33;26.84;101534.84;4982348;28;20411;-75
2021/03/31 11:53:31;;;;;;;25.25;13.55;;;;;;;22.12;27.90;101521.63;4990583;28;20073;-76
2021/03/31 11:56:02;;;;;;;25.25;13.38;;;;;;;22.31;27.91;101518.06;4993150;28;20135;-75